PWSweather.com
Personal Weather Stations
Station Observations
WHAKATANE1
Whakatane, WhakataneNZ

WhakataneWhakataneNZ

Lat: -37.960954, Lon: 176.9768

Elevation: 10

Station Type: Lacrosse

Latest ConditionsUpdated 10:00:00 PM GMT+12:12 Sunday, Feb 14, 2016
Currently Today's Max Today's Min Today's Average
Temperature 70.0°F21.1°C 83.8°F28.8°C 63.1°F17.3°C 74.5°F23.6°C
Dew Point 53.6°F12.0°C 62.9°F17.2°C 51.1°F10.6°C 56.9°F13.8°C
Winds 9.3 mph SSE15.0 kmh SSE 12.4 mph SSE20.0 kmh SSE - 6.3 mph 10.1 kmh
Wind Gusts 12.1 mph19.5 kmh 17.4 mph28.0 kmh - -
Humidity 56% 90% 34% 57%
Pressure 30.04 in1017.3 mb 30.11 in1019.6 mb 29.84 in1010.5 mb -
Hour Temp Dew Point Humidity Winds Wind Gusts Pressure Precip Precip Rate Daily Precip Total
10:00 PM 70.0°F21.1°C 53.6°F12.0°C 56% 9.3 mph SSE15.0 kmh SSE 12.1 mph19.5 kmh 30.04 in1017.3 mb 0.00 in0.0 mm 0.00 in0.0 mm 0.00 in0.0 mm
09:55 PM 70.2°F21.2°C 53.8°F12.1°C 56% 9.7 mph SSE15.6 kmh SSE 10.7 mph17.2 kmh 30.04 in1017.3 mb 0.00 in0.0 mm 0.00 in0.0 mm 0.00 in0.0 mm
09:50 PM 70.2°F21.2°C 53.8°F12.1°C 56% 9.3 mph S15.0 kmh S 10.7 mph17.2 kmh 30.04 in1017.3 mb 0.00 in0.0 mm 0.00 in0.0 mm 0.00 in0.0 mm
09:45 PM 70.3°F21.3°C 53.4°F11.9°C 55% 8.7 mph S14.0 kmh S 12.1 mph19.5 kmh 30.04 in1017.3 mb 0.00 in0.0 mm 0.00 in0.0 mm 0.00 in0.0 mm
09:40 PM 70.3°F21.3°C 53.4°F11.9°C 55% 8.2 mph S13.2 kmh S 12.1 mph19.5 kmh 30.04 in1017.3 mb 0.00 in0.0 mm 0.00 in0.0 mm 0.00 in0.0 mm
09:35 PM 70.3°F21.3°C 53.4°F11.9°C 55% 8.5 mph S13.7 kmh S 11.4 mph18.3 kmh 30.03 in1016.9 mb 0.00 in0.0 mm 0.00 in0.0 mm 0.00 in0.0 mm
09:30 PM 70.3°F21.3°C 52.9°F11.6°C 54% 8.5 mph S13.7 kmh S 11.4 mph18.3 kmh 30.03 in1016.9 mb 0.00 in0.0 mm 0.00 in0.0 mm 0.00 in0.0 mm
09:25 PM 70.3°F21.3°C 52.9°F11.6°C 54% 7.7 mph S12.4 kmh S 10.7 mph17.2 kmh 30.02 in1016.6 mb 0.00 in0.0 mm 0.00 in0.0 mm 0.00 in0.0 mm
09:20 PM 70.3°F21.3°C 52.9°F11.6°C 54% 7.3 mph S11.7 kmh S 10.7 mph17.2 kmh 30.02 in1016.6 mb 0.00 in0.0 mm 0.00 in0.0 mm 0.00 in0.0 mm
09:15 PM 70.5°F21.4°C 53.6°F12.0°C 55% 7.4 mph S11.9 kmh S 10.7 mph17.2 kmh 30.02 in1016.6 mb 0.00 in0.0 mm 0.00 in0.0 mm 0.00 in0.0 mm
09:10 PM 70.3°F21.3°C 53.9°F12.2°C 56% 7.5 mph SSE12.1 kmh SSE 10.7 mph17.2 kmh 30.01 in1016.3 mb 0.00 in0.0 mm 0.00 in0.0 mm 0.00 in0.0 mm
09:05 PM 70.3°F21.3°C 53.9°F12.2°C 56% 7.9 mph SSE12.7 kmh SSE 9.8 mph15.8 kmh 30.01 in1016.3 mb 0.00 in0.0 mm 0.00 in0.0 mm 0.00 in0.0 mm
09:00 PM 70.3°F21.3°C 53.9°F12.2°C 56% 6.7 mph SSE10.8 kmh SSE 9.8 mph15.8 kmh 30.00 in1015.9 mb 0.00 in0.0 mm 0.00 in0.0 mm 0.00 in0.0 mm
08:55 PM 70.5°F21.4°C 54.6°F12.6°C 57% 6.4 mph SE10.3 kmh SE 10.7 mph17.2 kmh 30.00 in1015.9 mb 0.00 in0.0 mm 0.00 in0.0 mm 0.00 in0.0 mm
08:50 PM 70.7°F21.5°C 54.7°F12.6°C 57% 7.2 mph SSE11.6 kmh SSE 10.7 mph17.2 kmh 29.99 in1015.6 mb 0.00 in0.0 mm 0.00 in0.0 mm 0.00 in0.0 mm
08:45 PM 70.7°F21.5°C 54.7°F12.6°C 57% 7.6 mph SSE12.2 kmh SSE 11.4 mph18.3 kmh 29.99 in1015.6 mb 0.00 in0.0 mm 0.00 in0.0 mm 0.00 in0.0 mm
08:40 PM 70.7°F21.5°C 54.3°F12.4°C 56% 8.1 mph SSE13.0 kmh SSE 13.0 mph20.9 kmh 29.98 in1015.2 mb 0.00 in0.0 mm 0.00 in0.0 mm 0.00 in0.0 mm
08:35 PM 70.7°F21.5°C 54.3°F12.4°C 56% 7.1 mph S11.4 kmh S 13.0 mph20.9 kmh 29.98 in1015.2 mb 0.00 in0.0 mm 0.00 in0.0 mm 0.00 in0.0 mm
08:30 PM 70.7°F21.5°C 54.3°F12.4°C 56% 7.4 mph S11.9 kmh S 9.8 mph15.8 kmh 29.96 in1014.6 mb 0.00 in0.0 mm 0.00 in0.0 mm 0.00 in0.0 mm
08:25 PM 70.7°F21.5°C 54.3°F12.4°C 56% 8.5 mph S13.7 kmh S 10.7 mph17.2 kmh 29.95 in1014.2 mb 0.00 in0.0 mm 0.00 in0.0 mm 0.00 in0.0 mm
08:20 PM 70.9°F21.6°C 54.4°F12.4°C 56% 8.0 mph S12.9 kmh S 10.7 mph17.2 kmh 29.94 in1013.9 mb 0.00 in0.0 mm 0.00 in0.0 mm 0.00 in0.0 mm
08:15 PM 70.9°F21.6°C 54.4°F12.4°C 56% 7.9 mph SE12.7 kmh SE 11.4 mph18.3 kmh 29.93 in1013.5 mb 0.00 in0.0 mm 0.00 in0.0 mm 0.00 in0.0 mm
08:10 PM 70.9°F21.6°C 53.9°F12.2°C 55% 7.3 mph SE11.7 kmh SE 11.4 mph18.3 kmh 29.93 in1013.5 mb 0.00 in0.0 mm 0.00 in0.0 mm 0.00 in0.0 mm
08:05 PM 70.9°F21.6°C 54.4°F12.4°C 56% 6.6 mph SSE10.6 kmh SSE 9.8 mph15.8 kmh 29.93 in1013.5 mb 0.00 in0.0 mm 0.00 in0.0 mm 0.00 in0.0 mm
08:00 PM 70.9°F21.6°C 53.9°F12.2°C 55% 7.2 mph SSE11.6 kmh SSE 9.8 mph15.8 kmh 29.93 in1013.5 mb 0.00 in0.0 mm 0.00 in0.0 mm 0.00 in0.0 mm
07:55 PM 70.9°F21.6°C 54.4°F12.4°C 56% 6.5 mph SSE10.5 kmh SSE 9.8 mph15.8 kmh 29.93 in1013.5 mb 0.00 in0.0 mm 0.00 in0.0 mm 0.00 in0.0 mm
07:50 PM 70.9°F21.6°C 54.9°F12.7°C 57% 6.2 mph SSE10.0 kmh SSE 9.8 mph15.8 kmh 29.93 in1013.5 mb 0.00 in0.0 mm 0.00 in0.0 mm 0.00 in0.0 mm
07:45 PM 70.9°F21.6°C 54.4°F12.4°C 56% 6.5 mph SSE10.5 kmh SSE 8.3 mph13.4 kmh 29.93 in1013.5 mb 0.00 in0.0 mm 0.00 in0.0 mm 0.00 in0.0 mm
07:40 PM 70.9°F21.6°C 54.4°F12.4°C 56% 6.4 mph SSE10.3 kmh SSE 8.3 mph13.4 kmh 29.92 in1013.2 mb 0.00 in0.0 mm 0.00 in0.0 mm 0.00 in0.0 mm
07:35 PM 71.1°F21.7°C 55.1°F12.8°C 57% 6.1 mph SSE9.8 kmh SSE 8.3 mph13.4 kmh 29.92 in1013.2 mb 0.00 in0.0 mm 0.00 in0.0 mm 0.00 in0.0 mm
07:30 PM 71.1°F21.7°C 55.1°F12.8°C 57% 6.4 mph SSE10.3 kmh SSE 9.8 mph15.8 kmh 29.92 in1013.2 mb 0.00 in0.0 mm 0.00 in0.0 mm 0.00 in0.0 mm
07:25 PM 71.2°F21.8°C 55.3°F12.9°C 57% 6.2 mph SSE10.0 kmh SSE 9.8 mph15.8 kmh 29.91 in1012.9 mb 0.00 in0.0 mm 0.00 in0.0 mm 0.00 in0.0 mm
07:20 PM 71.2°F21.8°C 55.3°F12.9°C 57% 6.5 mph SE10.5 kmh SE 9.8 mph15.8 kmh 29.91 in1012.9 mb 0.00 in0.0 mm 0.00 in0.0 mm 0.00 in0.0 mm
07:15 PM 71.4°F21.9°C 55.4°F13.0°C 57% 6.9 mph SSE11.1 kmh SSE 9.8 mph15.8 kmh 29.91 in1012.9 mb 0.00 in0.0 mm 0.00 in0.0 mm 0.00 in0.0 mm
07:10 PM 71.6°F22.0°C 55.6°F13.1°C 57% 6.6 mph SSE10.6 kmh SSE 9.8 mph15.8 kmh 29.91 in1012.9 mb 0.00 in0.0 mm 0.00 in0.0 mm 0.00 in0.0 mm
07:05 PM 71.8°F22.1°C 55.8°F13.2°C 57% 7.2 mph SSE11.6 kmh SSE 10.7 mph17.2 kmh 29.91 in1012.9 mb 0.00 in0.0 mm 0.00 in0.0 mm 0.00 in0.0 mm
07:00 PM 72.0°F22.2°C 55.4°F13.0°C 56% 6.8 mph SSE10.9 kmh SSE 10.7 mph17.2 kmh 29.90 in1012.5 mb 0.00 in0.0 mm 0.00 in0.0 mm 0.00 in0.0 mm
06:55 PM 72.1°F22.3°C 56.1°F13.4°C 57% 6.4 mph SSE10.3 kmh SSE 10.7 mph17.2 kmh 29.90 in1012.5 mb 0.00 in0.0 mm 0.00 in0.0 mm 0.00 in0.0 mm
06:50 PM 72.3°F22.4°C 55.8°F13.2°C 56% 6.9 mph SSE11.1 kmh SSE 10.7 mph17.2 kmh 29.89 in1012.2 mb 0.00 in0.0 mm 0.00 in0.0 mm 0.00 in0.0 mm
06:45 PM 72.5°F22.5°C 55.4°F13.0°C 55% 7.1 mph S11.4 kmh S 9.8 mph15.8 kmh 29.89 in1012.2 mb 0.00 in0.0 mm 0.00 in0.0 mm 0.00 in0.0 mm
06:40 PM 72.7°F22.6°C 55.6°F13.1°C 55% 6.8 mph S10.9 kmh S 9.8 mph15.8 kmh 29.89 in1012.2 mb 0.00 in0.0 mm 0.00 in0.0 mm 0.00 in0.0 mm
06:35 PM 73.0°F22.8°C 55.9°F13.3°C 55% 6.6 mph SSE10.6 kmh SSE 8.3 mph13.4 kmh 29.89 in1012.2 mb 0.00 in0.0 mm 0.00 in0.0 mm 0.00 in0.0 mm
06:30 PM 73.2°F22.9°C 56.1°F13.4°C 55% 7.2 mph SSE11.6 kmh SSE 9.2 mph14.8 kmh 29.89 in1012.2 mb 0.00 in0.0 mm 0.00 in0.0 mm 0.00 in0.0 mm
06:25 PM 73.4°F23.0°C 56.3°F13.5°C 55% 6.9 mph SSE11.1 kmh SSE 9.2 mph14.8 kmh 29.87 in1011.5 mb 0.00 in0.0 mm 0.00 in0.0 mm 0.00 in0.0 mm
06:20 PM 73.8°F23.2°C 56.6°F13.7°C 55% 6.5 mph SSE10.5 kmh SSE 13.0 mph20.9 kmh 29.86 in1011.2 mb 0.00 in0.0 mm 0.00 in0.0 mm 0.00 in0.0 mm
06:15 PM 73.9°F23.3°C 56.3°F13.5°C 54% 6.6 mph S10.6 kmh S 13.0 mph20.9 kmh 29.86 in1011.2 mb 0.00 in0.0 mm 0.00 in0.0 mm 0.00 in0.0 mm
06:10 PM 73.9°F23.3°C 56.3°F13.5°C 54% 6.9 mph SSE11.1 kmh SSE 9.8 mph15.8 kmh 29.86 in1011.2 mb 0.00 in0.0 mm 0.00 in0.0 mm 0.00 in0.0 mm
06:05 PM 74.1°F23.4°C 56.4°F13.6°C 54% 7.5 mph SE12.1 kmh SE 11.4 mph18.3 kmh 29.85 in1010.8 mb 0.00 in0.0 mm 0.00 in0.0 mm 0.00 in0.0 mm
06:00 PM 74.5°F23.6°C 56.8°F13.8°C 54% 6.8 mph SE10.9 kmh SE 11.4 mph18.3 kmh 29.85 in1010.8 mb 0.00 in0.0 mm 0.00 in0.0 mm 0.00 in0.0 mm
05:55 PM 74.7°F23.7°C 56.9°F13.8°C 54% 6.6 mph SSE10.6 kmh SSE 10.7 mph17.2 kmh 29.85 in1010.8 mb 0.00 in0.0 mm 0.00 in0.0 mm 0.00 in0.0 mm
05:50 PM 74.8°F23.8°C 57.1°F13.9°C 54% 6.8 mph SSE10.9 kmh SSE 8.3 mph13.4 kmh 29.85 in1010.8 mb 0.00 in0.0 mm 0.00 in0.0 mm 0.00 in0.0 mm
05:45 PM 75.2°F24.0°C 57.4°F14.1°C 54% 6.0 mph S9.7 kmh S 8.3 mph13.4 kmh 29.85 in1010.8 mb 0.00 in0.0 mm 0.00 in0.0 mm 0.00 in0.0 mm
05:40 PM 75.2°F24.0°C 57.4°F14.1°C 54% 5.9 mph S9.5 kmh S 8.3 mph13.4 kmh 29.85 in1010.8 mb 0.00 in0.0 mm 0.00 in0.0 mm 0.00 in0.0 mm
05:35 PM 75.2°F24.0°C 56.9°F13.8°C 53% 7.3 mph S11.7 kmh S 11.4 mph18.3 kmh 29.85 in1010.8 mb 0.00 in0.0 mm 0.00 in0.0 mm 0.00 in0.0 mm
05:30 PM 75.6°F24.2°C 56.7°F13.7°C 52% 7.7 mph S12.4 kmh S 11.4 mph18.3 kmh 29.84 in1010.5 mb 0.00 in0.0 mm 0.00 in0.0 mm 0.00 in0.0 mm
05:25 PM 75.7°F24.3°C 56.4°F13.6°C 51% 6.5 mph S10.5 kmh S 8.3 mph13.4 kmh 29.84 in1010.5 mb 0.00 in0.0 mm 0.00 in0.0 mm 0.00 in0.0 mm
05:20 PM 75.9°F24.4°C 56.0°F13.3°C 50% 6.3 mph SE10.1 kmh SE 8.3 mph13.4 kmh 29.85 in1010.8 mb 0.00 in0.0 mm 0.00 in0.0 mm 0.00 in0.0 mm
05:15 PM 75.9°F24.4°C 56.0°F13.3°C 50% 7.1 mph SE11.4 kmh SE 9.2 mph14.8 kmh 29.84 in1010.5 mb 0.00 in0.0 mm 0.00 in0.0 mm 0.00 in0.0 mm
05:10 PM 76.1°F24.5°C 55.6°F13.1°C 49% 7.1 mph SSE11.4 kmh SSE 10.7 mph17.2 kmh 29.84 in1010.5 mb 0.00 in0.0 mm 0.00 in0.0 mm 0.00 in0.0 mm
05:05 PM 76.5°F24.7°C 55.3°F12.9°C 48% 7.4 mph S11.9 kmh S 10.7 mph17.2 kmh 29.84 in1010.5 mb 0.00 in0.0 mm 0.00 in0.0 mm 0.00 in0.0 mm
05:00 PM 76.5°F24.7°C 54.8°F12.7°C 47% 7.6 mph S12.2 kmh S 9.8 mph15.8 kmh 29.84 in1010.5 mb 0.00 in0.0 mm 0.00 in0.0 mm 0.00 in0.0 mm
04:55 PM 76.6°F24.8°C 54.9°F12.7°C 47% 7.6 mph S12.2 kmh S 11.4 mph18.3 kmh 29.84 in1010.5 mb 0.00 in0.0 mm 0.00 in0.0 mm 0.00 in0.0 mm
04:50 PM 77.0°F25.0°C 55.3°F12.9°C 47% 7.5 mph SSE12.1 kmh SSE 11.4 mph18.3 kmh 29.85 in1010.8 mb 0.00 in0.0 mm 0.00 in0.0 mm 0.00 in0.0 mm
04:45 PM 77.4°F25.2°C 55.6°F13.1°C 47% 6.7 mph SSE10.8 kmh SSE 8.3 mph13.4 kmh 29.86 in1011.2 mb 0.00 in0.0 mm 0.00 in0.0 mm 0.00 in0.0 mm
04:40 PM 77.5°F25.3°C 55.8°F13.2°C 47% 7.5 mph SSE12.1 kmh SSE 10.7 mph17.2 kmh 29.86 in1011.2 mb 0.00 in0.0 mm 0.00 in0.0 mm 0.00 in0.0 mm
04:35 PM 77.7°F25.4°C 54.1°F12.3°C 44% 8.3 mph S13.4 kmh S 10.7 mph17.2 kmh 29.87 in1011.5 mb 0.00 in0.0 mm 0.00 in0.0 mm 0.00 in0.0 mm
04:30 PM 78.1°F25.6°C 54.4°F12.4°C 44% 8.0 mph SSE12.9 kmh SSE 9.8 mph15.8 kmh 29.87 in1011.5 mb 0.00 in0.0 mm 0.00 in0.0 mm 0.00 in0.0 mm
04:25 PM 78.3°F25.7°C 54.6°F12.6°C 44% 7.4 mph SSE11.9 kmh SSE 9.8 mph15.8 kmh 29.87 in1011.5 mb 0.00 in0.0 mm 0.00 in0.0 mm 0.00 in0.0 mm
04:20 PM 78.6°F25.9°C 54.3°F12.4°C 43% 7.5 mph SSE12.1 kmh SSE 9.2 mph14.8 kmh 29.87 in1011.5 mb 0.00 in0.0 mm 0.00 in0.0 mm 0.00 in0.0 mm
04:15 PM 78.6°F25.9°C 54.3°F12.4°C 43% 8.7 mph S14.0 kmh S 10.7 mph17.2 kmh 29.86 in1011.2 mb 0.00 in0.0 mm 0.00 in0.0 mm 0.00 in0.0 mm
04:10 PM 78.8°F26.0°C 53.1°F11.7°C 41% 8.8 mph S14.2 kmh S 10.7 mph17.2 kmh 29.87 in1011.5 mb 0.00 in0.0 mm 0.00 in0.0 mm 0.00 in0.0 mm
04:05 PM 79.3°F26.3°C 54.3°F12.4°C 42% 8.7 mph SSE14.0 kmh SSE 12.1 mph19.5 kmh 29.87 in1011.5 mb 0.00 in0.0 mm 0.00 in0.0 mm 0.00 in0.0 mm
04:00 PM 79.5°F26.4°C 54.5°F12.5°C 42% 7.6 mph SE12.2 kmh SE 12.1 mph19.5 kmh 29.86 in1011.2 mb 0.00 in0.0 mm 0.00 in0.0 mm 0.00 in0.0 mm
03:55 PM 79.5°F26.4°C 54.5°F12.5°C 42% 6.5 mph SE10.5 kmh SE 9.8 mph15.8 kmh 29.86 in1011.2 mb 0.00 in0.0 mm 0.00 in0.0 mm 0.00 in0.0 mm
03:50 PM 79.5°F26.4°C 53.8°F12.1°C 41% 7.3 mph SE11.7 kmh SE 9.8 mph15.8 kmh 29.86 in1011.2 mb 0.00 in0.0 mm 0.00 in0.0 mm 0.00 in0.0 mm
03:45 PM 79.7°F26.5°C 52.6°F11.4°C 39% 7.2 mph SSE11.6 kmh SSE 9.8 mph15.8 kmh 29.86 in1011.2 mb 0.00 in0.0 mm 0.00 in0.0 mm 0.00 in0.0 mm
03:40 PM 80.1°F26.7°C 51.5°F10.8°C 37% 7.1 mph SSE11.4 kmh SSE 9.8 mph15.8 kmh 29.87 in1011.5 mb 0.00 in0.0 mm 0.00 in0.0 mm 0.00 in0.0 mm
03:35 PM 80.4°F26.9°C 52.5°F11.4°C 38% 8.4 mph SSE13.5 kmh SSE 12.1 mph19.5 kmh 29.87 in1011.5 mb 0.00 in0.0 mm 0.00 in0.0 mm 0.00 in0.0 mm
03:30 PM 80.6°F27.0°C 52.0°F11.1°C 37% 8.5 mph SSE13.7 kmh SSE 12.1 mph19.5 kmh 29.87 in1011.5 mb 0.00 in0.0 mm 0.00 in0.0 mm 0.00 in0.0 mm
03:25 PM 80.4°F26.9°C 52.5°F11.4°C 38% 8.1 mph SSE13.0 kmh SSE 12.1 mph19.5 kmh 29.87 in1011.5 mb 0.00 in0.0 mm 0.00 in0.0 mm 0.00 in0.0 mm
03:20 PM 80.4°F26.9°C 52.5°F11.4°C 38% 8.6 mph SSE13.8 kmh SSE 11.4 mph18.3 kmh 29.86 in1011.2 mb 0.00 in0.0 mm 0.00 in0.0 mm 0.00 in0.0 mm
03:15 PM 80.8°F27.1°C 52.8°F11.6°C 38% 8.2 mph S13.2 kmh S 11.4 mph18.3 kmh 29.86 in1011.2 mb 0.00 in0.0 mm 0.00 in0.0 mm 0.00 in0.0 mm
03:10 PM 81.0°F27.2°C 52.3°F11.3°C 37% 8.8 mph SSE14.2 kmh SSE 12.1 mph19.5 kmh 29.86 in1011.2 mb 0.00 in0.0 mm 0.00 in0.0 mm 0.00 in0.0 mm
03:05 PM 80.8°F27.1°C 52.8°F11.6°C 38% 9.3 mph SSE15.0 kmh SSE 12.1 mph19.5 kmh 29.86 in1011.2 mb 0.00 in0.0 mm 0.00 in0.0 mm 0.00 in0.0 mm
03:00 PM 81.0°F27.2°C 53.0°F11.7°C 38% 8.3 mph SSE13.4 kmh SSE 11.4 mph18.3 kmh 29.86 in1011.2 mb 0.00 in0.0 mm 0.00 in0.0 mm 0.00 in0.0 mm
02:55 PM 81.0°F27.2°C 53.0°F11.7°C 38% 8.6 mph S13.8 kmh S 12.1 mph19.5 kmh 29.86 in1011.2 mb 0.00 in0.0 mm 0.00 in0.0 mm 0.00 in0.0 mm
02:50 PM 80.6°F27.0°C 54.1°F12.3°C 40% 9.3 mph S15.0 kmh S 12.1 mph19.5 kmh 29.86 in1011.2 mb 0.00 in0.0 mm 0.00 in0.0 mm 0.00 in0.0 mm
02:45 PM 80.8°F27.1°C 53.6°F12.0°C 39% 8.9 mph SSE14.3 kmh SSE 11.4 mph18.3 kmh 29.86 in1011.2 mb 0.00 in0.0 mm 0.00 in0.0 mm 0.00 in0.0 mm
02:40 PM 80.8°F27.1°C 52.1°F11.2°C 37% 8.7 mph SSE14.0 kmh SSE 10.7 mph17.2 kmh 29.86 in1011.2 mb 0.00 in0.0 mm 0.00 in0.0 mm 0.00 in0.0 mm
02:35 PM 81.1°F27.3°C 52.4°F11.3°C 37% 9.2 mph SSE14.8 kmh SSE 11.4 mph18.3 kmh 29.86 in1011.2 mb 0.00 in0.0 mm 0.00 in0.0 mm 0.00 in0.0 mm
02:30 PM 81.1°F27.3°C 53.2°F11.8°C 38% 9.6 mph SSE15.4 kmh SSE 11.4 mph18.3 kmh 29.86 in1011.2 mb 0.00 in0.0 mm 0.00 in0.0 mm 0.00 in0.0 mm
02:25 PM 81.0°F27.2°C 52.3°F11.3°C 37% 9.9 mph SSE15.9 kmh SSE 13.0 mph20.9 kmh 29.86 in1011.2 mb 0.00 in0.0 mm 0.00 in0.0 mm 0.00 in0.0 mm
02:20 PM 81.3°F27.4°C 51.1°F10.6°C 35% 11.0 mph SSE17.7 kmh SSE 13.6 mph21.9 kmh 29.86 in1011.2 mb 0.00 in0.0 mm 0.00 in0.0 mm 0.00 in0.0 mm
02:15 PM 81.3°F27.4°C 51.9°F11.1°C 36% 11.1 mph SSE17.9 kmh SSE 13.6 mph21.9 kmh 29.87 in1011.5 mb 0.00 in0.0 mm 0.00 in0.0 mm 0.00 in0.0 mm
02:10 PM 81.1°F27.3°C 51.7°F10.9°C 36% 10.9 mph SSE17.5 kmh SSE 13.6 mph21.9 kmh 29.87 in1011.5 mb 0.00 in0.0 mm 0.00 in0.0 mm 0.00 in0.0 mm
02:05 PM 81.1°F27.3°C 51.7°F10.9°C 36% 11.1 mph S17.9 kmh S 13.0 mph20.9 kmh 29.86 in1011.2 mb 0.00 in0.0 mm 0.00 in0.0 mm 0.00 in0.0 mm
02:00 PM 81.3°F27.4°C 51.1°F10.6°C 35% 10.0 mph S16.1 kmh S 12.1 mph19.5 kmh 29.86 in1011.2 mb 0.00 in0.0 mm 0.00 in0.0 mm 0.00 in0.0 mm
01:55 PM 81.3°F27.4°C 52.6°F11.4°C 37% 10.3 mph S16.6 kmh S 13.0 mph20.9 kmh 29.86 in1011.2 mb 0.00 in0.0 mm 0.00 in0.0 mm 0.00 in0.0 mm
01:50 PM 81.0°F27.2°C 53.0°F11.7°C 38% 10.9 mph S17.5 kmh S 13.0 mph20.9 kmh 29.87 in1011.5 mb 0.00 in0.0 mm 0.00 in0.0 mm 0.00 in0.0 mm
01:45 PM 80.8°F27.1°C 52.8°F11.6°C 38% 10.1 mph S16.3 kmh S 12.1 mph19.5 kmh 29.87 in1011.5 mb 0.00 in0.0 mm 0.00 in0.0 mm 0.00 in0.0 mm
01:40 PM 81.1°F27.3°C 53.2°F11.8°C 38% 9.7 mph S15.6 kmh S 13.6 mph21.9 kmh 29.87 in1011.5 mb 0.00 in0.0 mm 0.00 in0.0 mm 0.00 in0.0 mm
01:35 PM 81.3°F27.4°C 54.0°F12.2°C 39% 9.6 mph S15.4 kmh S 13.6 mph21.9 kmh 29.88 in1011.9 mb 0.00 in0.0 mm 0.00 in0.0 mm 0.00 in0.0 mm
01:30 PM 81.3°F27.4°C 54.7°F12.6°C 40% 10.1 mph SSE16.3 kmh SSE 13.6 mph21.9 kmh 29.88 in1011.9 mb 0.00 in0.0 mm 0.00 in0.0 mm 0.00 in0.0 mm
01:25 PM 81.1°F27.3°C 55.2°F12.9°C 41% 10.2 mph SSE16.4 kmh SSE 12.1 mph19.5 kmh 29.88 in1011.9 mb 0.00 in0.0 mm 0.00 in0.0 mm 0.00 in0.0 mm
01:20 PM 81.3°F27.4°C 55.4°F13.0°C 41% 10.0 mph SSE16.1 kmh SSE 12.1 mph19.5 kmh 29.88 in1011.9 mb 0.00 in0.0 mm 0.00 in0.0 mm 0.00 in0.0 mm
01:15 PM 81.1°F27.3°C 55.2°F12.9°C 41% 10.6 mph SSE17.1 kmh SSE 13.6 mph21.9 kmh 29.88 in1011.9 mb 0.00 in0.0 mm 0.00 in0.0 mm 0.00 in0.0 mm
01:10 PM 81.1°F27.3°C 55.2°F12.9°C 41% 10.5 mph SE16.9 kmh SE 13.6 mph21.9 kmh 29.89 in1012.2 mb 0.00 in0.0 mm 0.00 in0.0 mm 0.00 in0.0 mm
01:05 PM 81.1°F27.3°C 55.2°F12.9°C 41% 10.7 mph SE17.2 kmh SE 13.6 mph21.9 kmh 29.89 in1012.2 mb 0.00 in0.0 mm 0.00 in0.0 mm 0.00 in0.0 mm
01:00 PM 81.0°F27.2°C 54.4°F12.4°C 40% 11.7 mph SSE18.8 kmh SSE 13.6 mph21.9 kmh 29.89 in1012.2 mb 0.00 in0.0 mm 0.00 in0.0 mm 0.00 in0.0 mm
12:55 PM 81.5°F27.5°C 54.9°F12.7°C 40% 11.0 mph SSE17.7 kmh SSE 13.6 mph21.9 kmh 29.89 in1012.2 mb 0.00 in0.0 mm 0.00 in0.0 mm 0.00 in0.0 mm
12:50 PM 81.5°F27.5°C 54.9°F12.7°C 40% 10.2 mph SSE16.4 kmh SSE 14.5 mph23.3 kmh 29.88 in1011.9 mb 0.00 in0.0 mm 0.00 in0.0 mm 0.00 in0.0 mm
12:45 PM 81.1°F27.3°C 53.9°F12.2°C 39% 11.2 mph S18.0 kmh S 15.9 mph25.6 kmh 29.88 in1011.9 mb 0.00 in0.0 mm 0.00 in0.0 mm 0.00 in0.0 mm
12:40 PM 81.5°F27.5°C 53.5°F11.9°C 38% 10.9 mph S17.5 kmh S 15.9 mph25.6 kmh 29.88 in1011.9 mb 0.00 in0.0 mm 0.00 in0.0 mm 0.00 in0.0 mm
12:35 PM 81.9°F27.7°C 53.8°F12.1°C 38% 9.7 mph SSE15.6 kmh SSE 13.0 mph20.9 kmh 29.88 in1011.9 mb 0.00 in0.0 mm 0.00 in0.0 mm 0.00 in0.0 mm
12:30 PM 81.9°F27.7°C 53.8°F12.1°C 38% 9.7 mph SSE15.6 kmh SSE 13.0 mph20.9 kmh 29.88 in1011.9 mb 0.00 in0.0 mm 0.00 in0.0 mm 0.00 in0.0 mm
12:25 PM 81.9°F27.7°C 53.8°F12.1°C 38% 10.5 mph SSE16.9 kmh SSE 15.2 mph24.5 kmh 29.88 in1011.9 mb 0.00 in0.0 mm 0.00 in0.0 mm 0.00 in0.0 mm
12:20 PM 81.9°F27.7°C 53.1°F11.7°C 37% 11.9 mph SSE19.2 kmh SSE 15.9 mph25.6 kmh 29.88 in1011.9 mb 0.00 in0.0 mm 0.00 in0.0 mm 0.00 in0.0 mm
12:15 PM 82.0°F27.8°C 53.2°F11.8°C 37% 10.9 mph SSE17.5 kmh SSE 15.9 mph25.6 kmh 29.89 in1012.2 mb 0.00 in0.0 mm 0.00 in0.0 mm 0.00 in0.0 mm
12:10 PM 82.0°F27.8°C 53.2°F11.8°C 37% 11.1 mph S17.9 kmh S 16.8 mph27.0 kmh 29.89 in1012.2 mb 0.00 in0.0 mm 0.00 in0.0 mm 0.00 in0.0 mm
12:05 PM 81.9°F27.7°C 52.3°F11.3°C 36% 11.9 mph S19.2 kmh S 16.8 mph27.0 kmh 29.90 in1012.5 mb 0.00 in0.0 mm 0.00 in0.0 mm 0.00 in0.0 mm
12:00 PM 82.6°F28.1°C 52.2°F11.2°C 35% 11.7 mph S18.8 kmh S 15.9 mph25.6 kmh 29.90 in1012.5 mb 0.00 in0.0 mm 0.00 in0.0 mm 0.00 in0.0 mm
11:55 AM 82.4°F28.0°C 52.8°F11.6°C 36% 12.4 mph SSE20.0 kmh SSE 17.4 mph28.0 kmh 29.91 in1012.9 mb 0.00 in0.0 mm 0.00 in0.0 mm 0.00 in0.0 mm
11:50 AM 82.6°F28.1°C 52.2°F11.2°C 35% 11.1 mph SSE17.9 kmh SSE 17.4 mph28.0 kmh 29.91 in1012.9 mb 0.00 in0.0 mm 0.00 in0.0 mm 0.00 in0.0 mm
11:45 AM 82.2°F27.9°C 52.7°F11.5°C 36% 10.3 mph S16.6 kmh S 14.5 mph23.3 kmh 29.92 in1013.2 mb 0.00 in0.0 mm 0.00 in0.0 mm 0.00 in0.0 mm
11:40 AM 82.2°F27.9°C 51.1°F10.6°C 34% 11.6 mph S18.7 kmh S 15.2 mph24.5 kmh 29.93 in1013.5 mb 0.00 in0.0 mm 0.00 in0.0 mm 0.00 in0.0 mm
11:35 AM 82.4°F28.0°C 52.8°F11.6°C 36% 11.5 mph S18.5 kmh S 15.2 mph24.5 kmh 29.93 in1013.5 mb 0.00 in0.0 mm 0.00 in0.0 mm 0.00 in0.0 mm
11:30 AM 82.8°F28.2°C 52.4°F11.3°C 35% 10.6 mph S17.1 kmh S 13.6 mph21.9 kmh 29.94 in1013.9 mb 0.00 in0.0 mm 0.00 in0.0 mm 0.00 in0.0 mm
11:25 AM 82.6°F28.1°C 53.7°F12.1°C 37% 11.2 mph S18.0 kmh S 15.9 mph25.6 kmh 29.95 in1014.2 mb 0.00 in0.0 mm 0.00 in0.0 mm 0.00 in0.0 mm
11:20 AM 82.2°F27.9°C 53.4°F11.9°C 37% 11.9 mph S19.2 kmh S 15.9 mph25.6 kmh 29.97 in1014.9 mb 0.00 in0.0 mm 0.00 in0.0 mm 0.00 in0.0 mm
11:15 AM 82.0°F27.8°C 53.2°F11.8°C 37% 11.2 mph S18.0 kmh S 15.2 mph24.5 kmh 29.97 in1014.9 mb 0.00 in0.0 mm 0.00 in0.0 mm 0.00 in0.0 mm
11:10 AM 82.4°F28.0°C 53.6°F12.0°C 37% 10.5 mph S16.9 kmh S 13.6 mph21.9 kmh 29.98 in1015.2 mb 0.00 in0.0 mm 0.00 in0.0 mm 0.00 in0.0 mm
11:05 AM 82.4°F28.0°C 53.6°F12.0°C 37% 11.1 mph S17.9 kmh S 14.5 mph23.3 kmh 29.98 in1015.2 mb 0.00 in0.0 mm 0.00 in0.0 mm 0.00 in0.0 mm
11:00 AM 82.6°F28.1°C 53.0°F11.7°C 36% 11.4 mph S18.3 kmh S 14.5 mph23.3 kmh 29.99 in1015.6 mb 0.00 in0.0 mm 0.00 in0.0 mm 0.00 in0.0 mm
10:55 AM 82.8°F28.2°C 53.9°F12.2°C 37% 10.7 mph S17.2 kmh S 15.2 mph24.5 kmh 29.99 in1015.6 mb 0.00 in0.0 mm 0.00 in0.0 mm 0.00 in0.0 mm
10:50 AM 82.8°F28.2°C 53.9°F12.2°C 37% 10.2 mph S16.4 kmh S 15.2 mph24.5 kmh 30.00 in1015.9 mb 0.00 in0.0 mm 0.00 in0.0 mm 0.00 in0.0 mm
10:45 AM 82.0°F27.8°C 54.0°F12.2°C 38% 9.8 mph SSW15.8 kmh SSW 13.6 mph21.9 kmh 30.00 in1015.9 mb 0.00 in0.0 mm 0.00 in0.0 mm 0.00 in0.0 mm
10:40 AM 81.1°F27.3°C 52.4°F11.3°C 37% 9.3 mph S15.0 kmh S 13.6 mph21.9 kmh 30.01 in1016.3 mb 0.00 in0.0 mm 0.00 in0.0 mm 0.00 in0.0 mm
10:35 AM 81.0°F27.2°C 52.3°F11.3°C 37% 8.6 mph S13.8 kmh S 11.4 mph18.3 kmh 30.02 in1016.6 mb 0.00 in0.0 mm 0.00 in0.0 mm 0.00 in0.0 mm
10:30 AM 80.6°F27.0°C 52.7°F11.5°C 38% 8.9 mph S14.3 kmh S 11.4 mph18.3 kmh 30.02 in1016.6 mb 0.00 in0.0 mm 0.00 in0.0 mm 0.00 in0.0 mm
10:25 AM 80.4°F26.9°C 52.5°F11.4°C 38% 9.3 mph S15.0 kmh S 12.1 mph19.5 kmh 30.03 in1016.9 mb 0.00 in0.0 mm 0.00 in0.0 mm 0.00 in0.0 mm
10:20 AM 79.9°F26.6°C 54.1°F12.3°C 41% 9.4 mph S15.1 kmh S 12.1 mph19.5 kmh 30.04 in1017.3 mb 0.00 in0.0 mm 0.00 in0.0 mm 0.00 in0.0 mm
10:15 AM 80.1°F26.7°C 54.9°F12.7°C 42% 10.1 mph SSW16.3 kmh SSW 13.6 mph21.9 kmh 30.04 in1017.3 mb 0.00 in0.0 mm 0.00 in0.0 mm 0.00 in0.0 mm
10:10 AM 80.2°F26.8°C 55.8°F13.2°C 43% 10.5 mph S16.9 kmh S 13.6 mph21.9 kmh 30.04 in1017.3 mb 0.00 in0.0 mm 0.00 in0.0 mm 0.00 in0.0 mm
10:05 AM 80.4°F26.9°C 55.9°F13.3°C 43% 9.9 mph S15.9 kmh S 13.0 mph20.9 kmh 30.04 in1017.3 mb 0.00 in0.0 mm 0.00 in0.0 mm 0.00 in0.0 mm
10:00 AM 80.8°F27.1°C 56.2°F13.4°C 43% 9.5 mph S15.3 kmh S 12.1 mph19.5 kmh 30.04 in1017.3 mb 0.00 in0.0 mm 0.00 in0.0 mm 0.00 in0.0 mm
09:55 AM 81.0°F27.2°C 56.4°F13.6°C 43% 9.2 mph SSW14.8 kmh SSW 12.1 mph19.5 kmh 30.04 in1017.3 mb 0.00 in0.0 mm 0.00 in0.0 mm 0.00 in0.0 mm
09:50 AM 81.1°F27.3°C 57.2°F14.0°C 44% 8.7 mph SSW14.0 kmh SSW 12.1 mph19.5 kmh 30.05 in1017.6 mb 0.00 in0.0 mm 0.00 in0.0 mm 0.00 in0.0 mm
09:45 AM 81.5°F27.5°C 56.9°F13.8°C 43% 9.5 mph SSW15.3 kmh SSW 12.1 mph19.5 kmh 30.05 in1017.6 mb 0.00 in0.0 mm 0.00 in0.0 mm 0.00 in0.0 mm
09:40 AM 82.6°F28.1°C 56.5°F13.6°C 41% 10.2 mph S16.4 kmh S 13.0 mph20.9 kmh 30.05 in1017.6 mb 0.00 in0.0 mm 0.00 in0.0 mm 0.00 in0.0 mm
09:35 AM 83.5°F28.6°C 56.7°F13.7°C 40% 9.3 mph SSE15.0 kmh SSE 13.0 mph20.9 kmh 30.05 in1017.6 mb 0.00 in0.0 mm 0.00 in0.0 mm 0.00 in0.0 mm
09:30 AM 83.8°F28.8°C 57.0°F13.9°C 40% 7.6 mph SSE12.2 kmh SSE 11.4 mph18.3 kmh 30.06 in1017.9 mb 0.00 in0.0 mm 0.00 in0.0 mm 0.00 in0.0 mm
09:25 AM 83.3°F28.5°C 57.9°F14.4°C 42% 6.7 mph SE10.8 kmh SE 9.2 mph14.8 kmh 30.06 in1017.9 mb 0.00 in0.0 mm 0.00 in0.0 mm 0.00 in0.0 mm
09:20 AM 83.1°F28.4°C 57.7°F14.3°C 42% 7.8 mph S12.6 kmh S 12.1 mph19.5 kmh 30.06 in1017.9 mb 0.00 in0.0 mm 0.00 in0.0 mm 0.00 in0.0 mm
09:15 AM 83.3°F28.5°C 57.2°F14.0°C 41% 8.5 mph SSW13.7 kmh SSW 12.1 mph19.5 kmh 30.06 in1017.9 mb 0.00 in0.0 mm 0.00 in0.0 mm 0.00 in0.0 mm
09:10 AM 83.5°F28.6°C 58.7°F14.8°C 43% 7.3 mph SW11.7 kmh SW 12.1 mph19.5 kmh 30.06 in1017.9 mb 0.00 in0.0 mm 0.00 in0.0 mm 0.00 in0.0 mm
09:05 AM 83.3°F28.5°C 58.5°F14.7°C 43% 6.6 mph SW10.6 kmh SW 9.2 mph14.8 kmh 30.06 in1017.9 mb 0.00 in0.0 mm 0.00 in0.0 mm 0.00 in0.0 mm
09:00 AM 82.9°F28.3°C 58.8°F14.9°C 44% 6.7 mph SW10.8 kmh SW 8.3 mph13.4 kmh 30.06 in1017.9 mb 0.00 in0.0 mm 0.00 in0.0 mm 0.00 in0.0 mm
08:55 AM 82.9°F28.3°C 58.8°F14.9°C 44% 5.9 mph SSW9.5 kmh SSW 8.3 mph13.4 kmh 30.06 in1017.9 mb 0.00 in0.0 mm 0.00 in0.0 mm 0.00 in0.0 mm
08:50 AM 82.9°F28.3°C 59.5°F15.3°C 45% 5.4 mph S8.7 kmh S 8.3 mph13.4 kmh 30.07 in1018.3 mb 0.00 in0.0 mm 0.00 in0.0 mm 0.00 in0.0 mm
08:45 AM 82.4°F28.0°C 59.6°F15.3°C 46% 5.4 mph SSW8.7 kmh SSW 8.3 mph13.4 kmh 30.07 in1018.3 mb 0.00 in0.0 mm 0.00 in0.0 mm 0.00 in0.0 mm
08:40 AM 82.0°F27.8°C 59.9°F15.5°C 47% 5.8 mph SW9.3 kmh SW 8.3 mph13.4 kmh 30.07 in1018.3 mb 0.00 in0.0 mm 0.00 in0.0 mm 0.00 in0.0 mm
08:35 AM 81.7°F27.6°C 59.5°F15.3°C 47% 6.2 mph SW10.0 kmh SW 8.3 mph13.4 kmh 30.07 in1018.3 mb 0.00 in0.0 mm 0.00 in0.0 mm 0.00 in0.0 mm
08:30 AM 81.5°F27.5°C 60.0°F15.6°C 48% 5.3 mph SW8.5 kmh SW 7.6 mph12.2 kmh 30.08 in1018.6 mb 0.00 in0.0 mm 0.00 in0.0 mm 0.00 in0.0 mm
08:25 AM 81.5°F27.5°C 60.0°F15.6°C 48% 4.7 mph SW7.6 kmh SW 7.6 mph12.2 kmh 30.08 in1018.6 mb 0.00 in0.0 mm 0.00 in0.0 mm 0.00 in0.0 mm
08:20 AM 81.5°F27.5°C 60.5°F15.8°C 49% 5.1 mph SW8.2 kmh SW 8.3 mph13.4 kmh 30.08 in1018.6 mb 0.00 in0.0 mm 0.00 in0.0 mm 0.00 in0.0 mm
08:15 AM 81.1°F27.3°C 60.8°F16.0°C 50% 5.3 mph SW8.5 kmh SW 8.3 mph13.4 kmh 30.09 in1019.0 mb 0.00 in0.0 mm 0.00 in0.0 mm 0.00 in0.0 mm
08:10 AM 80.6°F27.0°C 61.4°F16.3°C 52% 4.6 mph SW7.4 kmh SW 7.6 mph12.2 kmh 30.09 in1019.0 mb 0.00 in0.0 mm 0.00 in0.0 mm 0.00 in0.0 mm
08:05 AM 80.1°F26.7°C 60.9°F16.1°C 52% 4.2 mph WSW6.8 kmh WSW 7.6 mph12.2 kmh 30.09 in1019.0 mb 0.00 in0.0 mm 0.00 in0.0 mm 0.00 in0.0 mm
08:00 AM 79.3°F26.3°C 61.3°F16.3°C 54% 3.6 mph WSW5.8 kmh WSW 6.9 mph11.1 kmh 30.09 in1019.0 mb 0.00 in0.0 mm 0.00 in0.0 mm 0.00 in0.0 mm
07:55 AM 78.8°F26.0°C 61.3°F16.3°C 55% 3.3 mph W5.3 kmh W 4.5 mph7.2 kmh 30.09 in1019.0 mb 0.00 in0.0 mm 0.00 in0.0 mm 0.00 in0.0 mm
07:50 AM 78.4°F25.8°C 61.0°F16.1°C 55% 3.3 mph W5.3 kmh W 4.5 mph7.2 kmh 30.10 in1019.3 mb 0.00 in0.0 mm 0.00 in0.0 mm 0.00 in0.0 mm
07:45 AM 78.1°F25.6°C 61.1°F16.2°C 56% 3.3 mph W5.3 kmh W 5.4 mph8.7 kmh 30.10 in1019.3 mb 0.00 in0.0 mm 0.00 in0.0 mm 0.00 in0.0 mm
07:40 AM 77.9°F25.5°C 62.0°F16.7°C 58% 3.2 mph W5.1 kmh W 5.4 mph8.7 kmh 30.11 in1019.6 mb 0.00 in0.0 mm 0.00 in0.0 mm 0.00 in0.0 mm
07:35 AM 77.4°F25.2°C 62.0°F16.7°C 59% 3.3 mph W5.3 kmh W 4.5 mph7.2 kmh 30.11 in1019.6 mb 0.00 in0.0 mm 0.00 in0.0 mm 0.00 in0.0 mm
07:30 AM 76.8°F24.9°C 62.4°F16.9°C 61% 3.7 mph WSW6.0 kmh WSW 5.4 mph8.7 kmh 30.11 in1019.6 mb 0.00 in0.0 mm 0.00 in0.0 mm 0.00 in0.0 mm
07:25 AM 76.1°F24.5°C 62.2°F16.8°C 62% 4.0 mph SW6.4 kmh SW 5.4 mph8.7 kmh 30.11 in1019.6 mb 0.00 in0.0 mm 0.00 in0.0 mm 0.00 in0.0 mm
07:20 AM 74.8°F23.8°C 62.3°F16.8°C 65% 3.4 mph SW5.5 kmh SW 5.4 mph8.7 kmh 30.11 in1019.6 mb 0.00 in0.0 mm 0.00 in0.0 mm 0.00 in0.0 mm
07:15 AM 73.6°F23.1°C 62.4°F16.9°C 68% 2.8 mph SW4.5 kmh SW 3.8 mph6.1 kmh 30.11 in1019.6 mb 0.00 in0.0 mm 0.00 in0.0 mm 0.00 in0.0 mm
07:10 AM 72.5°F22.5°C 61.4°F16.3°C 68% 2.7 mph SW4.3 kmh SW 3.8 mph6.1 kmh 30.11 in1019.6 mb 0.00 in0.0 mm 0.00 in0.0 mm 0.00 in0.0 mm
07:05 AM 72.0°F22.2°C 61.7°F16.5°C 70% 3.1 mph SW5.0 kmh SW 4.5 mph7.2 kmh 30.10 in1019.3 mb 0.00 in0.0 mm 0.00 in0.0 mm 0.00 in0.0 mm
07:00 AM 71.2°F21.8°C 61.8°F16.6°C 72% 3.1 mph SW5.0 kmh SW 4.5 mph7.2 kmh 30.10 in1019.3 mb 0.00 in0.0 mm 0.00 in0.0 mm 0.00 in0.0 mm
06:55 AM 70.5°F21.4°C 61.9°F16.6°C 74% 2.5 mph SW4.0 kmh SW 3.8 mph6.1 kmh 30.09 in1019.0 mb 0.00 in0.0 mm 0.00 in0.0 mm 0.00 in0.0 mm
06:50 AM 69.6°F20.9°C 61.7°F16.5°C 76% 2.5 mph SW4.0 kmh SW 3.8 mph6.1 kmh 30.09 in1019.0 mb 0.00 in0.0 mm 0.00 in0.0 mm 0.00 in0.0 mm
06:45 AM 68.9°F20.5°C 61.8°F16.6°C 78% 2.6 mph SW4.2 kmh SW 3.8 mph6.1 kmh 30.09 in1019.0 mb 0.00 in0.0 mm 0.00 in0.0 mm 0.00 in0.0 mm
06:40 AM 68.2°F20.1°C 62.2°F16.8°C 81% 2.8 mph SW4.5 kmh SW 3.8 mph6.1 kmh 30.09 in1019.0 mb 0.00 in0.0 mm 0.00 in0.0 mm 0.00 in0.0 mm
06:35 AM 67.5°F19.7°C 62.5°F16.9°C 84% 2.2 mph SW3.5 kmh SW 3.8 mph6.1 kmh 30.09 in1019.0 mb 0.00 in0.0 mm 0.00 in0.0 mm 0.00 in0.0 mm
06:30 AM 66.6°F19.2°C 62.9°F17.2°C 88% 1.7 mph SW2.7 kmh SW 3.1 mph5.0 kmh 30.09 in1019.0 mb 0.00 in0.0 mm 0.00 in0.0 mm 0.00 in0.0 mm
06:25 AM 65.3°F18.5°C 62.3°F16.8°C 90% 1.8 mph SW2.9 kmh SW 3.1 mph5.0 kmh 30.09 in1019.0 mb 0.00 in0.0 mm 0.00 in0.0 mm 0.00 in0.0 mm
06:20 AM 64.2°F17.9°C 61.2°F16.2°C 90% 2.1 mph SW3.4 kmh SW 3.1 mph5.0 kmh 30.09 in1019.0 mb 0.00 in0.0 mm 0.00 in0.0 mm 0.00 in0.0 mm
06:15 AM 63.5°F17.5°C 60.5°F15.8°C 90% 2.1 mph SW3.4 kmh SW 3.1 mph5.0 kmh 30.08 in1018.6 mb 0.00 in0.0 mm 0.00 in0.0 mm 0.00 in0.0 mm
06:10 AM 63.3°F17.4°C 60.0°F15.6°C 89% 1.9 mph SW3.1 kmh SW 3.1 mph5.0 kmh 30.08 in1018.6 mb 0.00 in0.0 mm 0.00 in0.0 mm 0.00 in0.0 mm
06:05 AM 63.1°F17.3°C 59.9°F15.5°C 89% 1.9 mph SW3.1 kmh SW 3.1 mph5.0 kmh 30.08 in1018.6 mb 0.00 in0.0 mm 0.00 in0.0 mm 0.00 in0.0 mm
06:00 AM 63.1°F17.3°C 59.5°F15.3°C 88% 2.2 mph SW3.5 kmh SW 3.8 mph6.1 kmh 30.08 in1018.6 mb 0.00 in0.0 mm 0.00 in0.0 mm 0.00 in0.0 mm
05:55 AM 63.1°F17.3°C 59.2°F15.1°C 87% 2.4 mph SW3.9 kmh SW 3.8 mph6.1 kmh 30.08 in1018.6 mb 0.00 in0.0 mm 0.00 in0.0 mm 0.00 in0.0 mm
05:50 AM 63.1°F17.3°C 58.9°F14.9°C 86% 2.2 mph SW3.5 kmh SW 3.1 mph5.0 kmh 30.08 in1018.6 mb 0.00 in0.0 mm 0.00 in0.0 mm 0.00 in0.0 mm
05:45 AM 63.3°F17.4°C 58.8°F14.9°C 85% 2.0 mph SW3.2 kmh SW 3.1 mph5.0 kmh 30.08 in1018.6 mb 0.00 in0.0 mm 0.00 in0.0 mm 0.00 in0.0 mm
05:40 AM 63.5°F17.5°C 58.9°F14.9°C 85% 1.4 mph SW2.3 kmh SW 2.2 mph3.5 kmh 30.08 in1018.6 mb 0.00 in0.0 mm 0.00 in0.0 mm 0.00 in0.0 mm
05:35 AM 63.7°F17.6°C 58.8°F14.9°C 84% 1.7 mph SW2.7 kmh SW 3.1 mph5.0 kmh 30.08 in1018.6 mb 0.00 in0.0 mm 0.00 in0.0 mm 0.00 in0.0 mm
05:30 AM 63.9°F17.7°C 59.0°F15.0°C 84% 2.3 mph SW3.7 kmh SW 3.1 mph5.0 kmh 30.07 in1018.3 mb 0.00 in0.0 mm 0.00 in0.0 mm 0.00 in0.0 mm
05:25 AM 64.0°F17.8°C 58.8°F14.9°C 83% 2.3 mph SW3.7 kmh SW 3.1 mph5.0 kmh 30.07 in1018.3 mb 0.00 in0.0 mm 0.00 in0.0 mm 0.00 in0.0 mm
05:20 AM 64.2°F17.9°C 59.0°F15.0°C 83% 2.1 mph SW3.4 kmh SW 3.1 mph5.0 kmh 30.07 in1018.3 mb 0.00 in0.0 mm 0.00 in0.0 mm 0.00 in0.0 mm
05:15 AM 64.2°F17.9°C 59.0°F15.0°C 83% 2.2 mph SW3.5 kmh SW 3.1 mph5.0 kmh 30.07 in1018.3 mb 0.00 in0.0 mm 0.00 in0.0 mm 0.00 in0.0 mm
05:10 AM 64.6°F18.1°C 59.0°F15.0°C 82% 2.2 mph SW3.5 kmh SW 3.1 mph5.0 kmh 30.07 in1018.3 mb 0.00 in0.0 mm 0.00 in0.0 mm 0.00 in0.0 mm
05:05 AM 64.8°F18.2°C 59.2°F15.1°C 82% 2.1 mph SW3.4 kmh SW 3.1 mph5.0 kmh 30.07 in1018.3 mb 0.00 in0.0 mm 0.00 in0.0 mm 0.00 in0.0 mm
05:00 AM 65.1°F18.4°C 59.2°F15.1°C 81% 1.8 mph SW2.9 kmh SW 3.1 mph5.0 kmh 30.07 in1018.3 mb 0.00 in0.0 mm 0.00 in0.0 mm 0.00 in0.0 mm
04:55 AM 65.3°F18.5°C 59.3°F15.2°C 81% 2.1 mph SW3.4 kmh SW 3.8 mph6.1 kmh 30.07 in1018.3 mb 0.00 in0.0 mm 0.00 in0.0 mm 0.00 in0.0 mm
04:50 AM 65.7°F18.7°C 59.3°F15.2°C 80% 2.4 mph SW3.9 kmh SW 3.8 mph6.1 kmh 30.07 in1018.3 mb 0.00 in0.0 mm 0.00 in0.0 mm 0.00 in0.0 mm
04:45 AM 65.8°F18.8°C 59.5°F15.3°C 80% 2.3 mph SW3.7 kmh SW 3.8 mph6.1 kmh 30.07 in1018.3 mb 0.00 in0.0 mm 0.00 in0.0 mm 0.00 in0.0 mm
04:40 AM 66.2°F19.0°C 59.9°F15.5°C 80% 2.4 mph SW3.9 kmh SW 3.8 mph6.1 kmh 30.07 in1018.3 mb 0.00 in0.0 mm 0.00 in0.0 mm 0.00 in0.0 mm
04:35 AM 66.4°F19.1°C 59.7°F15.4°C 79% 2.7 mph SW4.3 kmh SW 3.8 mph6.1 kmh 30.07 in1018.3 mb 0.00 in0.0 mm 0.00 in0.0 mm 0.00 in0.0 mm
04:30 AM 66.4°F19.1°C 59.7°F15.4°C 79% 3.1 mph SSW5.0 kmh SSW 3.8 mph6.1 kmh 30.07 in1018.3 mb 0.00 in0.0 mm 0.00 in0.0 mm 0.00 in0.0 mm
04:25 AM 66.6°F19.2°C 59.9°F15.5°C 79% 2.7 mph S4.3 kmh S 3.8 mph6.1 kmh 30.06 in1017.9 mb 0.00 in0.0 mm 0.00 in0.0 mm 0.00 in0.0 mm
04:20 AM 66.9°F19.4°C 60.2°F15.7°C 79% 2.5 mph S4.0 kmh S 3.8 mph6.1 kmh 30.06 in1017.9 mb 0.00 in0.0 mm 0.00 in0.0 mm 0.00 in0.0 mm
04:15 AM 67.1°F19.5°C 60.0°F15.6°C 78% 2.7 mph S4.3 kmh S 3.8 mph6.1 kmh 30.06 in1017.9 mb 0.00 in0.0 mm 0.00 in0.0 mm 0.00 in0.0 mm
04:10 AM 67.3°F19.6°C 60.2°F15.7°C 78% 3.4 mph S5.5 kmh S 5.4 mph8.7 kmh 30.06 in1017.9 mb 0.00 in0.0 mm 0.00 in0.0 mm 0.00 in0.0 mm
04:05 AM 67.5°F19.7°C 60.4°F15.8°C 78% 3.7 mph S6.0 kmh S 5.4 mph8.7 kmh 30.06 in1017.9 mb 0.00 in0.0 mm 0.00 in0.0 mm 0.00 in0.0 mm
04:00 AM 67.6°F19.8°C 60.6°F15.9°C 78% 3.3 mph S5.3 kmh S 4.5 mph7.2 kmh 30.06 in1017.9 mb 0.00 in0.0 mm 0.00 in0.0 mm 0.00 in0.0 mm
03:55 AM 67.8°F19.9°C 60.7°F15.9°C 78% 3.2 mph S5.1 kmh S 4.5 mph7.2 kmh 30.06 in1017.9 mb 0.00 in0.0 mm 0.00 in0.0 mm 0.00 in0.0 mm
03:50 AM 68.0°F20.0°C 60.9°F16.1°C 78% 3.5 mph S5.6 kmh S 4.5 mph7.2 kmh 30.06 in1017.9 mb 0.00 in0.0 mm 0.00 in0.0 mm 0.00 in0.0 mm
03:45 AM 68.0°F20.0°C 60.9°F16.1°C 78% 3.4 mph S5.5 kmh S 4.5 mph7.2 kmh 30.05 in1017.6 mb 0.00 in0.0 mm 0.00 in0.0 mm 0.00 in0.0 mm
03:40 AM 68.0°F20.0°C 60.9°F16.1°C 78% 3.1 mph S5.0 kmh S 4.5 mph7.2 kmh 30.05 in1017.6 mb 0.00 in0.0 mm 0.00 in0.0 mm 0.00 in0.0 mm
03:35 AM 68.2°F20.1°C 61.1°F16.2°C 78% 3.2 mph S5.1 kmh S 4.5 mph7.2 kmh 30.05 in1017.6 mb 0.00 in0.0 mm 0.00 in0.0 mm 0.00 in0.0 mm
03:30 AM 68.2°F20.1°C 61.1°F16.2°C 78% 3.3 mph S5.3 kmh S 4.5 mph7.2 kmh 30.05 in1017.6 mb 0.00 in0.0 mm 0.00 in0.0 mm 0.00 in0.0 mm
03:25 AM 68.2°F20.1°C 60.7°F15.9°C 77% 3.0 mph S4.8 kmh S 3.8 mph6.1 kmh 30.05 in1017.6 mb 0.00 in0.0 mm 0.00 in0.0 mm 0.00 in0.0 mm
03:20 AM 68.2°F20.1°C 60.7°F15.9°C 77% 2.3 mph S3.7 kmh S 3.8 mph6.1 kmh 30.05 in1017.6 mb 0.00 in0.0 mm 0.00 in0.0 mm 0.00 in0.0 mm
03:15 AM 68.4°F20.2°C 60.5°F15.8°C 76% 2.0 mph S3.2 kmh S 3.1 mph5.0 kmh 30.05 in1017.6 mb 0.00 in0.0 mm 0.00 in0.0 mm 0.00 in0.0 mm
03:10 AM 68.4°F20.2°C 60.5°F15.8°C 76% 2.4 mph S3.9 kmh S 3.1 mph5.0 kmh 30.05 in1017.6 mb 0.00 in0.0 mm 0.00 in0.0 mm 0.00 in0.0 mm
03:05 AM 68.5°F20.3°C 60.3°F15.7°C 75% 2.3 mph S3.7 kmh S 3.1 mph5.0 kmh 30.04 in1017.3 mb 0.00 in0.0 mm 0.00 in0.0 mm 0.00 in0.0 mm
03:00 AM 68.7°F20.4°C 60.1°F15.6°C 74% 2.0 mph S3.2 kmh S 3.1 mph5.0 kmh 30.04 in1017.3 mb 0.00 in0.0 mm 0.00 in0.0 mm 0.00 in0.0 mm
02:55 AM 68.9°F20.5°C 59.9°F15.5°C 73% 2.4 mph S3.9 kmh S 5.4 mph8.7 kmh 30.04 in1017.3 mb 0.00 in0.0 mm 0.00 in0.0 mm 0.00 in0.0 mm
02:50 AM 68.9°F20.5°C 59.9°F15.5°C 73% 2.8 mph S4.5 kmh S 5.4 mph8.7 kmh 30.04 in1017.3 mb 0.00 in0.0 mm 0.00 in0.0 mm 0.00 in0.0 mm
02:45 AM 69.1°F20.6°C 59.7°F15.4°C 72% 2.6 mph S4.2 kmh S 5.4 mph8.7 kmh 30.04 in1017.3 mb 0.00 in0.0 mm 0.00 in0.0 mm 0.00 in0.0 mm
02:40 AM 69.1°F20.6°C 59.3°F15.2°C 71% 2.6 mph S4.2 kmh S 4.5 mph7.2 kmh 30.04 in1017.3 mb 0.00 in0.0 mm 0.00 in0.0 mm 0.00 in0.0 mm
02:35 AM 69.1°F20.6°C 59.3°F15.2°C 71% 3.0 mph S4.8 kmh S 4.5 mph7.2 kmh 30.04 in1017.3 mb 0.00 in0.0 mm 0.00 in0.0 mm 0.00 in0.0 mm
02:30 AM 69.1°F20.6°C 59.3°F15.2°C 71% 3.0 mph SSE4.8 kmh SSE 5.4 mph8.7 kmh 30.04 in1017.3 mb 0.00 in0.0 mm 0.00 in0.0 mm 0.00 in0.0 mm
02:25 AM 69.1°F20.6°C 59.3°F15.2°C 71% 3.0 mph SE4.8 kmh SE 5.4 mph8.7 kmh 30.04 in1017.3 mb 0.00 in0.0 mm 0.00 in0.0 mm 0.00 in0.0 mm
02:20 AM 69.1°F20.6°C 59.7°F15.4°C 72% 3.7 mph SE6.0 kmh SE 5.4 mph8.7 kmh 30.04 in1017.3 mb 0.00 in0.0 mm 0.00 in0.0 mm 0.00 in0.0 mm
02:15 AM 69.1°F20.6°C 59.7°F15.4°C 72% 4.0 mph SE6.4 kmh SE 5.4 mph8.7 kmh 30.04 in1017.3 mb 0.00 in0.0 mm 0.00 in0.0 mm 0.00 in0.0 mm
02:10 AM 68.9°F20.5°C 59.9°F15.5°C 73% 4.3 mph SE6.9 kmh SE 6.0 mph9.7 kmh 30.04 in1017.3 mb 0.00 in0.0 mm 0.00 in0.0 mm 0.00 in0.0 mm
02:05 AM 68.9°F20.5°C 59.9°F15.5°C 73% 4.7 mph SE7.6 kmh SE 6.0 mph9.7 kmh 30.04 in1017.3 mb 0.00 in0.0 mm 0.00 in0.0 mm 0.00 in0.0 mm
02:00 AM 68.9°F20.5°C 60.3°F15.7°C 74% 4.3 mph SE6.9 kmh SE 6.0 mph9.7 kmh 30.04 in1017.3 mb 0.00 in0.0 mm 0.00 in0.0 mm 0.00 in0.0 mm
01:55 AM 68.9°F20.5°C 60.3°F15.7°C 74% 3.6 mph SE5.8 kmh SE 5.4 mph8.7 kmh 30.04 in1017.3 mb 0.00 in0.0 mm 0.00 in0.0 mm 0.00 in0.0 mm
01:50 AM 68.9°F20.5°C 60.3°F15.7°C 74% 3.2 mph SE5.1 kmh SE 4.5 mph7.2 kmh 30.04 in1017.3 mb 0.00 in0.0 mm 0.00 in0.0 mm 0.00 in0.0 mm
01:45 AM 68.9°F20.5°C 60.3°F15.7°C 74% 3.3 mph SE5.3 kmh SE 4.5 mph7.2 kmh 30.04 in1017.3 mb 0.00 in0.0 mm 0.00 in0.0 mm 0.00 in0.0 mm
01:40 AM 68.9°F20.5°C 60.7°F15.9°C 75% 3.7 mph SE6.0 kmh SE 8.3 mph13.4 kmh 30.04 in1017.3 mb 0.00 in0.0 mm 0.00 in0.0 mm 0.00 in0.0 mm
01:35 AM 68.7°F20.4°C 60.5°F15.8°C 75% 4.1 mph SE6.6 kmh SE 8.3 mph13.4 kmh 30.04 in1017.3 mb 0.00 in0.0 mm 0.00 in0.0 mm 0.00 in0.0 mm
01:30 AM 68.7°F20.4°C 60.5°F15.8°C 75% 4.0 mph SE6.4 kmh SE 6.0 mph9.7 kmh 30.04 in1017.3 mb 0.00 in0.0 mm 0.00 in0.0 mm 0.00 in0.0 mm
01:25 AM 68.7°F20.4°C 60.9°F16.1°C 76% 4.3 mph SE6.9 kmh SE 6.0 mph9.7 kmh 30.04 in1017.3 mb 0.00 in0.0 mm 0.00 in0.0 mm 0.00 in0.0 mm
01:20 AM 68.9°F20.5°C 61.0°F16.1°C 76% 3.9 mph SE6.3 kmh SE 6.0 mph9.7 kmh 30.04 in1017.3 mb 0.00 in0.0 mm 0.00 in0.0 mm 0.00 in0.0 mm
01:15 AM 69.1°F20.6°C 61.2°F16.2°C 76% 3.1 mph E5.0 kmh E 5.4 mph8.7 kmh 30.04 in1017.3 mb 0.00 in0.0 mm 0.00 in0.0 mm 0.00 in0.0 mm
01:10 AM 69.3°F20.7°C 61.4°F16.3°C 76% 3.1 mph E5.0 kmh E 4.5 mph7.2 kmh 30.04 in1017.3 mb 0.00 in0.0 mm 0.00 in0.0 mm 0.00 in0.0 mm
01:05 AM 69.4°F20.8°C 61.2°F16.2°C 75% 2.4 mph E3.9 kmh E 3.8 mph6.1 kmh 30.03 in1016.9 mb 0.00 in0.0 mm 0.00 in0.0 mm 0.00 in0.0 mm
01:00 AM 69.4°F20.8°C 61.2°F16.2°C 75% 1.6 mph E2.6 kmh E 2.2 mph3.5 kmh 30.03 in1016.9 mb 0.00 in0.0 mm 0.00 in0.0 mm 0.00 in0.0 mm
12:55 AM 69.6°F20.9°C 61.4°F16.3°C 75% 1.3 mph E2.1 kmh E 2.2 mph3.5 kmh 30.04 in1017.3 mb 0.00 in0.0 mm 0.00 in0.0 mm 0.00 in0.0 mm
12:50 AM 69.8°F21.0°C 60.8°F16.0°C 73% 1.5 mph E2.4 kmh E 2.2 mph3.5 kmh 30.04 in1017.3 mb 0.00 in0.0 mm 0.00 in0.0 mm 0.00 in0.0 mm
12:45 AM 69.8°F21.0°C 60.4°F15.8°C 72% 1.9 mph E3.1 kmh E 3.1 mph5.0 kmh 30.04 in1017.3 mb 0.00 in0.0 mm 0.00 in0.0 mm 0.00 in0.0 mm
12:40 AM 69.6°F20.9°C 60.2°F15.7°C 72% 1.4 mph E2.3 kmh E 3.1 mph5.0 kmh 30.03 in1016.9 mb 0.00 in0.0 mm 0.00 in0.0 mm 0.00 in0.0 mm
12:35 AM 69.8°F21.0°C 60.4°F15.8°C 72% 1.0 mph E1.6 kmh E 2.2 mph3.5 kmh 30.03 in1016.9 mb 0.00 in0.0 mm 0.00 in0.0 mm 0.00 in0.0 mm
12:30 AM 69.8°F21.0°C 60.4°F15.8°C 72% 1.5 mph E2.4 kmh E 2.2 mph3.5 kmh 30.04 in1017.3 mb 0.00 in0.0 mm 0.00 in0.0 mm 0.00 in0.0 mm
12:25 AM 69.8°F21.0°C 60.4°F15.8°C 72% 1.5 mph E2.4 kmh E 2.2 mph3.5 kmh 30.04 in1017.3 mb 0.00 in0.0 mm 0.00 in0.0 mm 0.00 in0.0 mm
12:20 AM 70.0°F21.1°C 60.6°F15.9°C 72% 1.1 mph E1.8 kmh E 1.6 mph2.6 kmh 30.03 in1016.9 mb 0.00 in0.0 mm 0.00 in0.0 mm 0.00 in0.0 mm
12:15 AM 70.0°F21.1°C 60.6°F15.9°C 72% 1.4 mph E2.3 kmh E 3.1 mph5.0 kmh 30.03 in1016.9 mb 0.00 in0.0 mm 0.00 in0.0 mm 0.00 in0.0 mm
12:10 AM 70.0°F21.1°C 60.2°F15.7°C 71% 2.3 mph E3.7 kmh E 4.5 mph7.2 kmh 30.03 in1016.9 mb 0.00 in0.0 mm 0.00 in0.0 mm 0.00 in0.0 mm
12:05 AM 70.0°F21.1°C 60.2°F15.7°C 71% 2.6 mph E4.2 kmh E 4.5 mph7.2 kmh 30.03 in1016.9 mb 0.00 in0.0 mm 0.00 in0.0 mm 0.00 in0.0 mm
12:00 AM 70.0°F21.1°C 60.2°F15.7°C 71% 2.1 mph E3.4 kmh E 3.1 mph5.0 kmh 30.03 in1016.9 mb 0.00 in0.0 mm 0.00 in0.0 mm 0.00 in0.0 mm